Search for airport 
image banner adimage banner adimage banner ad
image banner ad

IA51 - De Soto Airport

Located in De Soto, United States

ICAO - IA51, IATA -

Data provided by Airmate  

General information

Coordinates: N43°25'37" W93°16'25"
Elevation is 1274 feet MSL.
 
View others Airports in Iowa

Operational data

Special qualification required
Current time UTC:
Current local time:
Weather at : KAEL - Albert Lea Muni ( 29 km )
METAR: KAEL 150935Z AUTO 34003KT 7SM CLR 13/11 A3013 RMK AO2
View NOTAMs / SUP AIP / TFR affecting this airport [VIEW]
Communications frequencies: [VIEW]

Runways:

RWY identifierQFULength (ft)Width (ft)SurfaceLDA (ft)
04223160GRASS
22223160GRASS

Airport contact information

Address: De Soto United States

Satellite view of IA51